Time;durP1;ratioP1;P1;durP2;ratioP2;P2;SDS_P1;SDS_P2;PMS_P1;PMS_P2;Temp;Humidity;BMP_temperature;BMP_pressure;BME280_temperature;BME280_humidity;BME280_pressure;Samples;Min_cycle;Max_cycle;Signal;HPM_P1;HPM_P2
2021/06/24 00:01:07;;;;;;;11.23;7.93;;;15.80;99.90;;;17.27;79.26;101070.09;6162726;23;20009;-90
2021/06/24 00:03:36;;;;;;;11.27;8.77;;;15.80;99.90;;;17.25;79.70;101061.22;6168121;23;20006;-88
2021/06/24 00:06:07;;;;;;;11.63;7.78;;;15.80;99.90;;;17.30;79.46;101060.84;6167888;23;20032;-91
2021/06/24 00:08:35;;;;;;;10.75;7.97;;;15.80;99.90;;;17.31;79.28;101061.66;6190516;23;20293;-88
2021/06/24 00:11:05;;;;;;;11.93;8.32;;;15.80;99.90;;;17.29;79.39;101055.59;6167863;23;20009;-87
2021/06/24 00:13:32;;;;;;;11.90;7.82;;;15.80;99.90;;;17.30;79.27;101058.03;6191650;23;20017;-90
2021/06/24 00:15:58;;;;;;;15.20;8.40;;;15.80;99.90;;;17.29;79.57;101056.41;6194327;23;20005;-88
2021/06/24 00:18:24;;;;;;;11.70;8.50;;;15.90;99.90;;;17.26;79.82;101060.03;6188308;23;20010;-91
2021/06/24 00:20:52;;;;;;;11.77;7.60;;;15.80;99.90;;;17.30;79.22;101049.56;6186783;23;20017;-92
2021/06/24 00:23:19;;;;;;;10.27;8.52;;;15.80;99.90;;;17.27;79.38;101058.00;6155743;23;20017;-91
2021/06/24 00:25:46;;;;;;;12.90;8.10;;;15.80;99.90;;;17.28;79.54;101060.44;6156335;23;20021;-90
2021/06/24 00:28:15;;;;;;;9.40;7.43;;;15.80;99.90;;;17.27;79.82;101058.00;6156192;23;20009;-91
2021/06/24 00:30:45;;;;;;;13.35;8.23;;;15.80;99.90;;;17.28;79.81;101049.13;6179999;23;20062;-89
2021/06/24 00:33:11;;;;;;;15.07;9.05;;;15.80;99.90;;;17.26;79.91;101057.19;6179783;23;20005;-89
2021/06/24 00:35:37;;;;;;;15.60;8.48;;;15.80;99.90;;;17.28;79.79;101056.78;6155331;23;20005;-89
2021/06/24 00:38:04;;;;;;;9.07;7.32;;;15.80;99.90;;;17.24;79.84;101044.69;6154625;23;20006;-90
2021/06/24 00:40:36;;;;;;;15.23;8.80;;;15.70;99.90;;;17.24;79.76;101053.94;6158056;23;20029;-89
2021/06/24 00:43:12;;;;;;;14.77;9.18;;;15.80;99.90;;;17.25;80.00;101049.94;6157759;23;20011;-90
2021/06/24 00:45:41;;;;;;;14.05;8.65;;;15.80;99.90;;;17.24;79.92;101047.50;6182483;23;20017;-89
2021/06/24 00:48:09;;;;;;;15.70;8.65;;;15.70;99.90;;;17.22;80.23;101053.53;6157068;23;20112;-91
2021/06/24 00:50:39;;;;;;;16.52;9.63;;;15.80;99.90;;;17.21;80.25;101046.25;6156500;23;20383;-90
2021/06/24 00:53:09;;;;;;;14.63;9.38;;;15.80;99.90;;;17.24;80.28;101053.94;6156470;23;20048;-91
2021/06/24 00:55:44;;;;;;;19.88;9.85;;;15.70;99.90;;;17.21;80.44;101051.91;6156860;23;20009;-91
2021/06/24 00:58:25;;;;;;;14.63;10.05;;;15.80;99.90;;;17.18;80.48;101049.88;6156630;23;20317;-89
2021/06/24 01:00:55;;;;;;;11.98;8.45;;;15.70;99.90;;;17.21;80.23;101053.94;6157939;23;20321;-90
2021/06/24 01:03:23;;;;;;;12.48;10.50;;;15.70;99.90;;;17.23;80.31;101048.69;6157913;23;20413;-92
2021/06/24 01:05:50;;;;;;;13.70;8.82;;;15.80;99.90;;;17.22;80.50;101049.91;6158208;23;20009;-91
2021/06/24 01:08:21;;;;;;;15.52;9.70;;;15.70;99.90;;;17.23;80.70;101054.34;6158354;23;20284;-91
2021/06/24 01:10:49;;;;;;;13.10;8.88;;;15.70;99.90;;;17.24;80.59;101068.06;6159596;23;20013;-91
2021/06/24 01:13:17;;;;;;;15.15;9.40;;;15.70;99.90;;;17.22;80.50;101061.19;6160853;23;20091;-92
2021/06/24 01:15:43;;;;;;;12.38;8.57;;;15.80;99.90;;;17.23;80.46;101060.81;6160847;23;20448;-89
2021/06/24 01:18:09;;;;;;;12.73;9.45;;;15.70;99.90;;;17.15;80.93;101050.66;6160176;23;20013;-91
2021/06/24 01:20:36;;;;;;;15.32;9.63;;;15.70;99.90;;;17.18;80.57;101046.22;6159817;23;20318;-91
2021/06/24 01:23:05;;;;;;;14.52;10.98;;;15.70;99.90;;;17.12;81.28;101047.81;6160918;23;20013;-90
2021/06/24 01:25:34;;;;;;;15.35;10.38;;;15.70;99.90;;;17.12;80.86;101045.81;6161974;23;20013;-92
2021/06/24 01:28:08;;;;;;;11.98;9.63;;;15.70;99.90;;;17.13;81.18;101047.44;6161709;23;20019;-89
2021/06/24 01:30:37;;;;;;;12.50;9.55;;;15.70;99.90;;;17.13;81.14;101041.78;6186426;23;20013;-88
2021/06/24 01:33:06;;;;;;;19.63;10.07;;;15.70;99.90;;;17.12;81.07;101040.16;6159081;23;20049;-91
2021/06/24 01:35:34;;;;;;;15.23;9.48;;;15.70;99.90;;;17.12;80.94;101034.50;6158703;23;20006;-91
2021/06/24 01:38:07;;;;;;;13.07;10.00;;;15.70;99.90;;;17.11;81.16;101032.09;6158864;23;20006;-91
2021/06/24 01:40:35;;;;;;;20.30;11.10;;;15.60;99.90;;;17.09;81.55;101031.66;6160185;23;20474;-90
2021/06/24 01:43:01;;;;;;;16.38;10.23;;;15.60;99.90;;;17.07;81.59;101012.31;6158198;23;20017;-89
2021/06/24 01:45:27;;;;;;;18.27;10.38;;;15.60;99.90;;;17.04;81.96;101024.41;6158607;23;20009;-91
2021/06/24 01:47:54;;;;;;;15.27;10.05;;;15.60;99.90;;;17.03;81.83;101017.13;6160494;23;20016;-90
2021/06/24 01:50:20;;;;;;;15.80;9.75;;;15.60;99.90;;;16.99;82.03;101010.63;6161075;23;20005;-92
2021/06/24 01:52:48;;;;;;;23.80;10.93;;;15.60;99.90;;;16.99;82.06;101021.94;6186131;23;20014;-90
2021/06/24 01:55:17;;;;;;;15.60;11.25;;;15.50;99.90;;;16.94;82.62;101007.38;6161555;23;20056;-92
2021/06/24 04:23:16;;;;;;;21.23;12.05;;;15.40;99.90;;;16.93;84.84;100969.88;6139215;23;20089;-90
2021/06/24 04:39:12;;;;;;;19.65;12.45;;;15.60;99.90;;;17.18;83.82;100981.31;6011638;23;20022;-88
2021/06/24 07:27:29;;;;;;;16.60;12.52;;;17.10;99.90;;;18.85;74.79;100969.19;6216144;23;20017;-88
2021/06/24 07:29:55;;;;;;;17.02;13.00;;;17.10;99.90;;;19.00;74.55;100967.97;6195529;23;20088;-90
2021/06/24 07:32:23;;;;;;;20.38;13.30;;;17.30;99.90;;;19.14;74.37;100972.75;6221591;23;20111;-90
2021/06/24 07:34:49;;;;;;;22.33;13.90;;;17.40;99.90;;;19.00;73.94;100976.47;6219318;23;20544;-92
2021/06/24 07:37:15;;;;;;;20.60;13.73;;;17.30;99.90;;;18.95;74.25;100959.88;6193454;23;20016;-89
2021/06/24 07:39:41;;;;;;;21.50;11.98;;;17.30;99.90;;;19.04;74.36;100971.56;6198203;23;20339;-89
2021/06/24 07:42:08;;;;;;;15.95;11.90;;;17.30;99.90;;;19.15;74.00;100975.19;6227129;23;20013;-90
2021/06/24 07:44:34;;;;;;;18.92;13.63;;;17.40;99.90;;;19.17;73.56;100963.47;6219999;23;20068;-91
2021/06/24 07:47:04;;;;;;;17.17;12.82;;;17.50;99.90;;;19.26;73.01;100975.16;6163631;23;20024;-90
2021/06/24 07:50:00;;;;;;;19.02;13.38;;;17.60;99.90;;;19.33;73.02;100967.44;6163789;23;20315;-88
2021/06/24 07:53:13;;;;;;;;;;;;;;;;;;;;;
2021/06/24 07:56:07;;;;;;;17.88;12.10;;;17.90;99.90;;;19.82;71.33;100969.28;6192642;23;20024;-89
2021/06/24 11:05:12;;;;;;;18.88;15.25;;;20.80;99.90;;;22.95;60.43;100953.81;6135774;23;20079;-89
2021/06/24 11:07:41;;;;;;;16.65;13.73;;;20.90;99.90;;;23.19;60.05;100940.31;6184260;23;20027;-91
2021/06/24 11:10:26;;;;;;;21.08;15.38;;;21.20;99.90;;;23.45;59.42;100933.69;6158660;23;20009;-89
2021/06/24 11:13:48;;;;;;;20.63;15.43;;;21.40;99.90;;;23.74;58.38;100933.88;6160468;23;20009;-90
2021/06/24 11:16:20;;;;;;;18.13;16.00;;;21.60;99.90;;;24.23;55.86;100934.78;6177500;23;19990;-89
2021/06/24 11:33:41;;;;;;;18.85;15.43;;;23.10;99.90;;;25.33;52.06;100942.06;5847357;24;20060;-91
2021/06/24 11:38:09;;;;;;;20.65;17.25;;;23.30;99.90;;;25.39;52.55;100925.97;5863703;24;20040;-89
2021/06/24 11:40:35;;;;;;;22.45;14.35;;;23.30;99.90;;;25.57;52.55;100929.13;5876708;24;20026;-89
2021/06/24 11:44:22;;;;;;;19.75;14.88;;;23.40;99.90;;;25.29;52.42;100929.94;5978495;23;20457;-89
2021/06/24 11:46:59;;;;;;;13.60;10.82;;;23.30;99.90;;;25.00;53.99;100924.22;6147714;23;20052;-88
2021/06/24 12:04:45;;;;;;;18.20;14.02;;;22.40;99.90;;;24.33;55.84;100925.97;6161886;23;20045;-89
2021/06/24 12:07:15;;;;;;;17.95;13.90;;;22.40;99.90;;;24.58;54.63;100923.28;6159611;23;20013;-91
2021/06/24 12:09:51;;;;;;;17.50;13.60;;;22.60;99.90;;;24.41;55.04;100923.72;6158253;23;20033;-88
2021/06/24 12:12:28;;;;;;;17.15;13.43;;;22.60;99.90;;;24.79;55.30;100924.75;6134134;23;20097;-88
2021/06/24 12:15:04;;;;;;;14.73;11.55;;;22.80;99.90;;;25.34;53.98;100929.38;6136204;23;20009;-89
2021/06/24 12:17:37;;;;;;;15.38;11.32;;;23.10;99.90;;;25.51;52.20;100925.22;6157857;23;20009;-91
2021/06/24 12:20:15;;;;;;;15.43;11.82;;;23.50;99.90;;;25.86;51.39;100919.66;6159370;23;20373;-88
2021/06/24 12:23:02;;;;;;;24.60;13.57;;;23.70;99.90;;;26.27;50.15;100924.47;6160030;23;20017;-88
2021/06/24 12:25:34;;;;;;;16.35;12.27;;;24.20;99.90;;;26.51;50.06;100922.84;6133987;23;20014;-89
2021/06/24 12:28:05;;;;;;;21.67;14.15;;;24.30;99.90;;;26.12;51.42;100924.94;6157811;23;20017;-89
2021/06/24 12:30:41;;;;;;;17.73;12.88;;;24.20;99.90;;;25.79;50.66;100925.59;6182775;23;20033;-89
2021/06/24 12:33:28;;;;;;;15.77;13.73;;;23.90;99.90;;;25.25;52.35;100926.38;6159743;23;20017;-89
2021/06/24 12:36:12;;;;;;;14.68;12.50;;;23.50;99.90;;;24.98;52.92;100923.06;6138629;23;20010;-88
2021/06/24 12:38:45;;;;;;;18.85;13.13;;;23.10;99.90;;;24.78;53.27;100914.59;6159461;23;20412;-88
2021/06/24 12:41:17;;;;;;;12.70;11.05;;;22.80;99.90;;;24.57;53.84;100913.09;6133717;23;20014;-90
2021/06/24 12:43:44;;;;;;;12.93;10.60;;;22.70;99.90;;;24.71;53.19;100914.78;6162170;23;19994;-90
2021/06/24 12:46:14;;;;;;;14.75;10.35;;;22.60;99.90;;;24.86;53.39;100910.31;6133187;23;20076;-89
2021/06/24 12:48:46;;;;;;;20.15;13.30;;;22.80;99.90;;;24.63;53.60;100914.16;6156840;23;20436;-87
2021/06/24 12:51:26;;;;;;;18.30;12.77;;;22.80;99.90;;;24.26;54.56;100914.72;6156298;23;20444;-89
2021/06/24 12:53:54;;;;;;;18.98;14.02;;;22.60;99.90;;;24.24;54.46;100919.28;6156941;23;20014;-90
2021/06/24 12:56:37;;;;;;;16.40;12.18;;;22.60;99.90;;;24.27;54.60;100912.69;6132557;23;20452;-89
2021/06/24 12:59:23;;;;;;;16.90;12.55;;;22.40;99.90;;;24.54;55.38;100911.16;6157172;23;20060;-89
2021/06/24 13:01:53;;;;;;;18.60;12.85;;;22.50;99.90;;;24.29;55.86;100907.31;6161253;23;20009;-91
2021/06/24 13:04:30;;;;;;;16.10;12.23;;;22.60;99.90;;;24.64;54.87;100904.34;6161692;23;20014;-88
2021/06/24 13:07:04;;;;;;;14.10;11.10;;;22.70;99.90;;;24.74;54.08;100905.31;6160363;23;20053;-90
2021/06/24 13:27:17;;;;;;;16.48;12.60;;;22.90;99.90;;;24.97;54.12;100890.03;6103677;23;20123;-90
2021/06/24 13:30:46;;;;;;;15.55;13.00;;;23.10;99.90;;;24.98;53.07;100897.34;5987502;24;20049;-90
2021/06/24 13:33:12;;;;;;;20.33;14.00;;;23.20;99.90;;;24.87;53.71;100888.28;5997201;23;20012;-89
2021/06/24 13:35:38;;;;;;;19.25;12.93;;;23.20;99.90;;;25.06;53.97;100887.31;6061096;23;20071;-90
2021/06/24 13:38:12;;;;;;;21.35;15.57;;;23.20;99.90;;;25.06;53.14;100893.84;6159766;23;20016;-89
2021/06/24 13:40:48;;;;;;;15.68;12.88;;;23.20;99.90;;;25.23;53.33;100890.91;6161209;23;20028;-89
2021/06/24 13:43:25;;;;;;;;;;;23.10;99.90;;;25.01;53.19;100890.75;6164982;23;20002;-90
2021/06/24 13:45:57;;;;;;;17.65;12.18;;;23.10;99.90;;;24.82;53.68;100889.59;6160816;23;19904;-88
2021/06/24 13:48:34;;;;;;;17.88;12.50;;;23.10;99.90;;;24.90;54.94;100890.22;6161909;23;20033;-88
2021/06/24 13:51:08;;;;;;;14.30;10.93;;;23.00;99.90;;;25.08;54.35;100890.50;6164066;23;20014;-89
2021/06/24 13:53:40;;;;;;;21.27;15.43;;;23.00;99.90;;;24.68;54.99;100884.28;6165675;23;20036;-87
2021/06/24 13:56:06;;;;;;;14.10;12.10;;;22.90;99.90;;;24.93;53.84;100886.47;6171842;23;20036;-88
2021/06/24 14:47:46;;;;;;;18.27;12.13;;;23.80;99.90;;;25.99;49.89;100866.09;6159888;23;20037;-87
2021/06/24 14:50:13;;;;;;;14.75;9.82;;;23.80;99.90;;;25.71;50.18;100862.09;6155790;23;20088;-91
2021/06/24 14:52:39;;;;;;;14.18;11.85;;;23.70;99.90;;;25.71;49.60;100850.66;6103061;23;20041;-92
2021/06/24 14:55:07;;;;;;;14.70;13.23;;;23.60;99.90;;;25.08;52.46;100854.16;6103852;23;20089;-91
2021/06/24 14:57:40;;;;;;;14.63;12.82;;;23.40;99.90;;;25.09;53.43;100846.41;6104670;23;20503;-90
2021/06/24 15:00:08;;;;;;;16.08;13.77;;;23.40;99.90;;;25.24;53.39;100847.56;6103535;23;20010;-92
2021/06/24 15:02:34;;;;;;;16.70;14.95;;;23.40;99.90;;;25.52;51.42;100848.81;6104764;23;20009;-89
2021/06/24 15:05:07;;;;;;;17.85;13.43;;;23.50;99.90;;;25.37;52.03;100833.28;6104800;23;20017;-88
2021/06/24 15:07:35;;;;;;;16.70;13.15;;;23.50;99.90;;;25.32;52.65;100842.44;6103797;23;20006;-92
2021/06/24 15:10:02;;;;;;;14.60;12.55;;;23.50;99.90;;;25.16;52.94;100829.03;6105448;23;20002;-91
2021/06/24 15:12:28;;;;;;;16.63;12.40;;;23.40;99.90;;;25.06;53.48;100836.69;6106349;23;20010;-90
2021/06/24 15:14:55;;;;;;;16.42;12.27;;;23.40;99.90;;;25.13;52.44;100832.81;6107498;23;20285;-88
2021/06/24 15:17:21;;;;;;;19.00;13.63;;;23.30;99.90;;;24.97;53.56;100835.75;6108975;23;20006;-88
2021/06/24 15:19:47;;;;;;;13.30;11.15;;;23.10;99.90;;;24.99;53.84;100833.22;6109154;23;20285;-87
2021/06/24 15:22:13;;;;;;;13.77;10.98;;;23.00;99.90;;;24.98;54.12;100831.63;6112757;23;20036;-89
2021/06/24 15:24:39;;;;;;;17.75;13.80;;;23.00;99.90;;;24.93;54.29;100835.84;6110585;23;20073;-90
2021/06/24 15:27:06;;;;;;;16.20;13.18;;;23.00;99.90;;;24.72;53.90;100833.56;6105255;23;20045;-90
2021/06/24 15:29:32;;;;;;;17.70;13.02;;;22.90;99.90;;;24.56;54.26;100827.91;6106136;23;20014;-89
2021/06/24 15:31:59;;;;;;;16.25;12.32;;;22.80;99.90;;;24.30;55.08;100821.25;6104907;23;20098;-93
2021/06/24 15:34:29;;;;;;;12.98;11.57;;;22.50;99.90;;;23.88;56.10;100825.16;6108566;23;20016;-90
2021/06/24 15:36:55;;;;;;;11.55;8.65;;;22.10;99.90;;;23.70;56.94;100819.88;6103441;23;20491;-90
2021/06/24 15:39:22;;;;;;;15.98;12.68;;;21.90;99.90;;;23.43;57.92;100825.81;6103848;23;20006;-92
2021/06/24 15:41:52;;;;;;;14.50;12.32;;;21.80;99.90;;;23.17;58.22;100808.88;6104838;23;20105;-91
2021/06/24 15:44:18;;;;;;;16.73;11.88;;;21.50;99.90;;;22.94;60.04;100804.88;6105907;23;20006;-91
2021/06/24 15:46:47;;;;;;;12.35;10.35;;;21.40;99.90;;;22.65;60.44;100812.38;6105108;23;20017;-92
2021/06/24 15:49:13;;;;;;;13.73;10.60;;;21.10;99.90;;;22.51;60.85;100807.75;6104868;23;20010;-90
2021/06/24 15:51:51;;;;;;;16.27;10.82;;;20.90;99.90;;;22.19;63.96;100815.25;6104972;23;20060;-91
2021/06/24 15:54:18;;;;;;;18.13;11.75;;;20.70;99.90;;;21.85;63.72;100804.84;6106782;23;20029;-90
2021/06/24 15:56:44;;;;;;;22.58;12.48;;;20.50;99.90;;;21.72;67.36;100803.84;6108175;23;20006;-91
2021/06/24 15:59:12;;;;;;;21.52;12.93;;;20.30;99.90;;;21.54;68.36;100803.34;6108439;23;20013;-91
2021/06/24 16:01:38;;;;;;;26.02;16.35;;;20.10;99.90;;;21.26;69.51;100804.53;6131974;23;20006;-91
2021/06/24 16:04:05;;;;;;;23.60;16.92;;;19.90;99.90;;;21.09;71.49;100805.59;6109810;23;20100;-91
2021/06/24 16:06:32;;;;;;;20.60;14.57;;;19.70;99.90;;;20.99;72.46;100807.31;6109544;23;20032;-90
2021/06/24 16:08:58;;;;;;;22.73;15.90;;;19.50;99.90;;;20.88;75.12;100811.50;6109716;23;20444;-89
2021/06/24 16:11:25;;;;;;;21.35;17.10;;;19.40;99.90;;;20.77;76.36;100811.66;6110935;23;20062;-91
2021/06/24 16:13:51;;;;;;;24.50;20.48;;;19.30;99.90;;;20.57;76.52;100802.16;6110380;23;20321;-88
2021/06/24 16:16:19;;;;;;;23.58;17.65;;;19.10;99.90;;;20.51;76.99;100798.19;6111659;23;20434;-89
2021/06/24 16:18:45;;;;;;;25.30;19.25;;;19.00;99.90;;;20.48;78.36;100790.53;6109830;23;20092;-88
2021/06/24 16:21:19;;;;;;;19.95;15.82;;;19.00;99.90;;;20.47;78.35;100795.38;6109888;23;20373;-92
2021/06/24 16:23:45;;;;;;;30.00;19.52;;;19.00;99.90;;;20.44;80.76;100801.91;6108276;23;20013;-93
2021/06/24 16:26:11;;;;;;;21.05;15.90;;;18.90;99.90;;;20.50;80.65;100802.25;6107265;23;20017;-91
2021/06/24 16:28:37;;;;;;;23.95;18.25;;;19.00;99.90;;;20.53;80.63;100804.22;6106233;23;20371;-90
2021/06/24 16:31:03;;;;;;;17.65;14.73;;;19.00;99.90;;;20.56;80.20;100799.72;6130459;23;20038;-91
2021/06/24 16:33:29;;;;;;;23.23;16.60;;;18.90;99.90;;;20.60;80.30;100797.66;6104637;23;20017;-88
2021/06/24 16:35:55;;;;;;;22.70;17.75;;;19.10;99.90;;;20.63;80.06;100799.66;6128526;23;20006;-91
2021/06/24 16:38:20;;;;;;;21.45;17.33;;;19.00;99.90;;;20.66;79.65;100804.50;6104307;23;20010;-89
2021/06/24 16:40:47;;;;;;;18.98;15.45;;;19.00;99.90;;;20.70;79.79;100805.25;6104387;23;20010;-92
2021/06/24 16:43:13;;;;;;;18.20;14.40;;;19.10;99.90;;;20.70;78.83;100810.94;6129635;23;20034;-92
2021/06/24 16:45:39;;;;;;;18.25;12.20;;;19.10;99.90;;;20.72;77.83;100816.97;6127816;23;20010;-91
2021/06/24 16:48:08;;;;;;;14.23;11.95;;;19.10;99.90;;;20.74;76.83;100811.72;6104295;23;20013;-91
2021/06/24 16:50:34;;;;;;;16.85;12.30;;;19.10;99.90;;;20.75;75.38;100807.63;6105366;23;20080;-92
2021/06/24 16:53:02;;;;;;;16.00;10.85;;;19.10;99.90;;;20.80;74.67;100799.47;6111256;23;20021;-88
2021/06/24 16:55:33;;;;;;;16.77;12.00;;;19.20;99.90;;;20.91;74.46;100805.78;6122432;23;20002;-89
2021/06/24 16:58:01;;;;;;;11.75;9.60;;;19.30;99.90;;;20.99;73.83;100815.03;6123930;23;19997;-88
2021/06/24 17:00:26;;;;;;;15.20;10.65;;;19.40;99.90;;;21.05;73.27;100810.50;6125183;23;20025;-89
2021/06/24 17:02:52;;;;;;;15.82;10.95;;;19.40;99.90;;;21.13;73.08;100812.03;6123679;23;20013;-87
2021/06/24 17:05:18;;;;;;;12.80;9.93;;;19.40;99.90;;;21.19;70.56;100810.31;6123595;23;19998;-88
2021/06/24 17:07:45;;;;;;;13.90;9.07;;;19.50;99.90;;;21.32;70.92;100811.34;6123951;23;20013;-88
2021/06/24 17:10:16;;;;;;;14.65;11.25;;;19.60;99.90;;;21.34;69.96;100808.91;6115145;23;20017;-89
2021/06/24 17:12:44;;;;;;;14.32;9.98;;;19.60;99.90;;;21.38;67.50;100808.84;6104688;23;20009;-87
2021/06/24 17:15:15;;;;;;;15.98;9.77;;;19.70;99.90;;;21.37;66.49;100813.72;6104387;23;20459;-87
2021/06/24 17:17:42;;;;;;;12.50;8.35;;;19.70;99.90;;;21.48;66.02;100808.69;6104815;23;20002;-89
2021/06/24 17:20:16;;;;;;;12.48;8.68;;;19.80;99.90;;;21.60;66.02;100817.84;6105201;23;20108;-90
2021/06/24 17:22:42;;;;;;;10.75;7.35;;;19.90;99.90;;;21.69;65.09;100804.72;6104581;23;20077;-88
2021/06/24 17:25:12;;;;;;;11.45;9.60;;;20.00;99.90;;;21.68;64.27;100803.09;6105901;23;20010;-89
2021/06/24 17:27:38;;;;;;;14.90;9.32;;;20.00;99.90;;;21.72;64.07;100808.72;6105655;23;20016;-90
2021/06/24 17:30:20;;;;;;;11.35;8.63;;;20.10;99.90;;;21.75;64.61;100807.88;6105576;23;20018;-86
2021/06/24 17:32:46;;;;;;;11.43;8.50;;;20.10;99.90;;;21.70;64.37;100800.66;6132606;23;20330;-88
2021/06/24 17:35:13;;;;;;;9.60;7.25;;;20.10;99.90;;;21.74;64.69;100801.38;6106669;23;20010;-87
2021/06/24 17:37:40;;;;;;;11.55;7.95;;;20.10;99.90;;;21.72;65.59;100803.03;6106192;23;20006;-87
2021/06/24 17:40:10;;;;;;;13.57;8.85;;;20.10;99.90;;;21.67;64.39;100801.50;6134593;23;20041;-89
2021/06/24 17:42:36;;;;;;;10.25;8.02;;;20.00;99.90;;;21.55;64.06;100808.56;6113985;23;20113;-88
2021/06/24 17:45:07;;;;;;;11.85;7.60;;;19.90;99.90;;;21.51;64.61;100796.44;6103052;23;20006;-87
2021/06/24 17:47:33;;;;;;;11.38;7.95;;;19.90;99.90;;;21.47;65.14;100804.25;6102131;23;20010;-91
2021/06/24 17:50:00;;;;;;;12.48;8.75;;;19.90;99.90;;;21.45;64.98;100803.84;6101557;23;20360;-89
2021/06/24 17:52:26;;;;;;;11.90;8.35;;;19.80;99.90;;;21.44;64.48;100807.94;6101310;23;20014;-89
2021/06/24 17:55:56;;;;;;;12.40;8.82;;;19.80;99.90;;;21.40;64.58;100801.50;6102483;23;20458;-90
2021/06/24 17:58:21;;;;;;;12.25;8.73;;;19.70;99.90;;;21.33;64.23;100801.59;6126978;23;20021;-88
2021/06/24 18:00:47;;;;;;;10.68;7.45;;;19.70;99.90;;;21.31;64.85;100801.25;6103989;23;20010;-89
2021/06/24 18:03:13;;;;;;;10.00;7.53;;;19.70;99.90;;;21.34;65.44;100805.25;6104015;23;20033;-89
2021/06/24 18:05:40;;;;;;;9.10;7.10;;;19.70;99.90;;;21.33;65.84;100810.13;6130089;23;20006;-90
2021/06/24 18:08:09;;;;;;;12.43;9.13;;;19.70;99.90;;;21.31;65.15;100806.13;6106095;23;20006;-89
2021/06/24 18:10:42;;;;;;;14.93;9.27;;;19.70;99.90;;;21.25;64.61;100811.47;6106916;23;20037;-93
2021/06/24 18:13:11;;;;;;;10.77;7.22;;;19.60;99.90;;;21.17;65.08;100801.44;6107150;23;20012;-91
2021/06/24 18:15:37;;;;;;;12.93;7.72;;;19.60;99.90;;;21.15;65.38;100811.59;6108252;23;20328;-91
2021/06/24 18:18:04;;;;;;;12.27;8.25;;;19.50;99.90;;;21.11;65.67;100811.66;6108160;23;20397;-88
2021/06/24 18:20:33;;;;;;;9.63;6.95;;;19.50;99.90;;;21.06;66.52;100805.63;6106507;23;20006;-92
2021/06/24 18:23:05;;;;;;;8.20;7.05;;;19.50;99.90;;;21.01;66.65;100809.72;6106302;23;20096;-89
2021/06/24 18:25:32;;;;;;;8.57;7.38;;;19.40;99.90;;;20.99;66.70;100804.50;6104799;23;20013;-88
2021/06/24 18:28:04;;;;;;;8.98;6.82;;;19.30;99.90;;;20.98;67.17;100805.72;6104357;23;20443;-89
2021/06/24 18:34:26;;;;;;;12.50;8.00;;;19.40;99.90;;;20.98;67.54;100808.56;6018366;23;20086;-89
2021/06/24 18:36:52;;;;;;;12.35;8.13;;;19.40;99.90;;;20.95;67.76;100809.41;6108798;23;20014;-91
2021/06/24 18:39:27;;;;;;;12.43;7.28;;;19.40;99.90;;;20.97;68.14;100804.09;6105860;23;20014;-92
2021/06/24 18:41:58;;;;;;;11.63;8.38;;;19.40;99.90;;;20.95;67.26;100805.75;6134825;23;20040;-90
2021/06/24 18:44:24;;;;;;;10.80;7.60;;;19.40;99.90;;;20.95;67.70;100803.72;6108431;23;20041;-90
2021/06/24 18:46:49;;;;;;;8.93;6.50;;;19.30;99.90;;;20.92;67.96;100801.72;6108717;23;20014;-91
2021/06/24 18:49:15;;;;;;;14.23;7.55;;;19.30;99.90;;;20.93;68.33;100814.69;6104001;23;20024;-90
2021/06/24 18:51:41;;;;;;;9.48;8.15;;;19.30;99.90;;;20.90;67.91;100800.56;6104296;23;20109;-90
2021/06/24 18:54:10;;;;;;;9.30;6.68;;;19.30;99.90;;;20.88;67.86;100803.00;6106231;23;20492;-90
2021/06/24 18:56:37;;;;;;;7.20;5.88;;;19.30;99.90;;;20.84;68.05;100796.56;6104869;23;20006;-92
2021/06/24 18:59:03;;;;;;;12.00;7.60;;;19.20;99.90;;;20.84;68.67;100799.38;6105935;23;20006;-88
2021/06/24 19:01:29;;;;;;;15.13;10.00;;;19.30;99.90;;;20.84;69.10;100793.72;6106516;23;20475;-88
2021/06/24 19:03:55;;;;;;;13.48;11.38;;;19.20;99.90;;;20.72;68.97;100799.94;6130674;23;20010;-90
2021/06/24 19:06:21;;;;;;;15.20;10.05;;;19.20;99.90;;;20.69;68.45;100804.44;6107613;23;20044;-88
2021/06/24 19:08:47;;;;;;;16.67;11.32;;;19.10;99.90;;;20.63;67.54;100805.34;6106644;23;20041;-88
2021/06/24 19:11:17;;;;;;;14.32;11.38;;;19.10;99.90;;;20.59;67.86;100805.38;6105227;23;20097;-90
2021/06/24 19:13:43;;;;;;;15.70;10.25;;;19.10;99.90;;;20.56;67.83;100800.53;6131455;23;20048;-89
2021/06/24 19:16:09;;;;;;;18.60;11.75;;;19.00;99.90;;;20.46;68.13;100807.13;6104513;23;20005;-86
2021/06/24 19:18:35;;;;;;;15.45;10.88;;;19.00;99.90;;;20.46;68.01;100809.97;6106443;23;20215;-87
2021/06/24 19:21:01;;;;;;;14.82;10.23;;;18.90;99.90;;;20.43;68.18;100808.78;6105182;23;20025;-87
2021/06/24 19:23:27;;;;;;;13.88;11.13;;;18.90;99.90;;;20.37;68.37;100815.34;6134335;23;20033;-91
2021/06/24 19:25:53;;;;;;;13.90;9.82;;;18.80;99.90;;;20.33;68.87;100809.69;6105371;23;20097;-88
2021/06/24 19:28:19;;;;;;;13.60;10.45;;;18.80;99.90;;;20.32;68.09;100816.63;6106305;23;20010;-88
2021/06/24 19:30:45;;;;;;;13.50;10.50;;;18.70;99.90;;;20.28;68.12;100815.84;6104869;23;20014;-88
2021/06/24 19:33:10;;;;;;;16.92;10.93;;;18.70;99.90;;;20.21;68.32;100823.56;6105450;23;20009;-90
2021/06/24 19:35:36;;;;;;;11.95;8.93;;;18.70;99.90;;;20.19;68.29;100820.38;6104812;23;20006;-88
2021/06/24 19:38:03;;;;;;;20.50;11.70;;;18.60;99.90;;;20.14;68.94;100818.78;6105023;23;20002;-90
2021/06/24 19:40:30;;;;;;;19.48;12.57;;;18.60;99.90;;;20.11;69.13;100830.97;6105700;23;20463;-89
2021/06/24 19:42:58;;;;;;;15.32;11.63;;;18.60;99.90;;;20.11;69.36;100821.63;6106830;23;20451;-84
2021/06/24 19:45:25;;;;;;;20.05;12.45;;;18.50;99.90;;;20.08;69.41;100822.47;6106208;23;20021;-88
2021/06/24 19:47:52;;;;;;;14.35;10.48;;;18.50;99.90;;;20.02;69.45;100824.97;6106364;23;20097;-88
2021/06/24 19:50:23;;;;;;;19.98;11.95;;;18.50;99.90;;;19.91;69.91;100824.25;6106939;23;20034;-86
2021/06/24 19:52:54;;;;;;;14.55;10.20;;;18.40;99.90;;;19.96;69.68;100830.28;6131731;23;20010;-90
2021/06/24 19:55:22;;;;;;;14.52;10.95;;;18.40;99.90;;;19.89;69.91;100830.34;6106161;23;20017;-87
2021/06/24 19:57:52;;;;;;;11.45;8.55;;;18.40;99.90;;;19.89;69.52;100827.50;6106721;23;20006;-88
2021/06/24 20:00:26;;;;;;;14.07;9.30;;;18.40;99.90;;;19.86;70.06;100831.19;6110145;23;20004;-87
2021/06/24 20:02:52;;;;;;;14.68;10.07;;;18.30;99.90;;;19.83;70.64;100826.34;6107564;23;20006;-85
2021/06/24 20:05:20;;;;;;;10.55;9.30;;;18.30;99.90;;;19.82;70.47;100836.06;6111875;23;20057;-83
2021/06/24 20:07:48;;;;;;;13.32;8.32;;;18.30;99.90;;;19.80;70.76;100838.50;6116840;23;20057;-89
2021/06/24 20:10:17;;;;;;;13.77;9.77;;;18.30;99.90;;;19.80;70.73;100837.72;6105580;23;20006;-91
2021/06/24 20:12:45;;;;;;;14.07;9.80;;;18.30;99.90;;;19.78;71.18;100837.28;6104794;23;20037;-89
2021/06/24 20:15:15;;;;;;;13.73;10.75;;;18.20;99.90;;;19.77;70.84;100833.69;6105168;23;20002;-91
2021/06/24 20:17:42;;;;;;;12.52;9.18;;;18.20;99.90;;;19.74;71.01;100830.88;6104331;23;20017;-91
2021/06/24 20:20:18;;;;;;;14.07;10.43;;;18.20;99.90;;;19.71;71.54;100843.84;6104166;23;20010;-90
2021/06/24 20:22:45;;;;;;;14.18;10.85;;;18.20;99.90;;;19.69;71.42;100845.47;6102214;23;20022;-91
2021/06/24 20:25:16;;;;;;;12.35;10.85;;;18.10;99.90;;;19.70;71.18;100849.91;6102845;23;20014;-91
2021/06/24 20:27:44;;;;;;;15.40;10.68;;;18.20;99.90;;;19.67;71.98;100845.09;6102505;23;20389;-91
2021/06/24 20:30:16;;;;;;;15.70;11.25;;;18.10;99.90;;;19.66;71.79;100849.94;6104293;23;20444;-89
2021/06/24 20:36:43;;;;;;;13.60;9.48;;;18.10;99.90;;;19.66;72.17;100849.13;6131796;23;20458;-88